sensor_id;sensor_type;location;lat;lon;timestamp;P1;durP1;ratioP1;P2;durP2;ratioP2
10305;SDS011;5198;52.382;9.020;2023-04-25T00:01:17;210.07;;;57.13;;
10305;SDS011;5198;52.382;9.020;2023-04-25T00:05:20;209.13;;;56.80;;
10305;SDS011;5198;52.382;9.020;2023-04-25T00:09:24;209.50;;;56.70;;
10305;SDS011;5198;52.382;9.020;2023-04-25T00:13:29;210.55;;;57.25;;
10305;SDS011;5198;52.382;9.020;2023-04-25T00:17:32;212.20;;;57.80;;
10305;SDS011;5198;52.382;9.020;2023-04-25T00:21:36;212.40;;;57.80;;
10305;SDS011;5198;52.382;9.020;2023-04-25T00:25:41;212.00;;;57.40;;
10305;SDS011;5198;52.382;9.020;2023-04-25T00:29:45;210.40;;;56.40;;
10305;SDS011;5198;52.382;9.020;2023-04-25T00:33:48;213.63;;;58.60;;
10305;SDS011;5198;52.382;9.020;2023-04-25T00:37:52;213.25;;;57.90;;
10305;SDS011;5198;52.382;9.020;2023-04-25T00:41:56;212.83;;;57.80;;
10305;SDS011;5198;52.382;9.020;2023-04-25T00:46:01;210.80;;;56.70;;
10305;SDS011;5198;52.382;9.020;2023-04-25T00:50:04;212.35;;;57.70;;
10305;SDS011;5198;52.382;9.020;2023-04-25T00:54:08;211.20;;;57.60;;
10305;SDS011;5198;52.382;9.020;2023-04-25T00:58:12;224.25;;;59.60;;
10305;SDS011;5198;52.382;9.020;2023-04-25T01:02:17;217.40;;;58.90;;
10305;SDS011;5198;52.382;9.020;2023-04-25T01:06:21;217.13;;;59.63;;
10305;SDS011;5198;52.382;9.020;2023-04-25T01:10:24;218.90;;;59.30;;
10305;SDS011;5198;52.382;9.020;2023-04-25T01:14:27;217.80;;;59.70;;
10305;SDS011;5198;52.382;9.020;2023-04-25T01:18:32;218.35;;;60.15;;
10305;SDS011;5198;52.382;9.020;2023-04-25T01:22:36;213.05;;;58.20;;
10305;SDS011;5198;52.382;9.020;2023-04-25T01:26:40;215.03;;;58.70;;
10305;SDS011;5198;52.382;9.020;2023-04-25T01:30:51;215.90;;;58.95;;
10305;SDS011;5198;52.382;9.020;2023-04-25T01:34:54;216.00;;;59.00;;
10305;SDS011;5198;52.382;9.020;2023-04-25T01:38:58;215.03;;;58.90;;
10305;SDS011;5198;52.382;9.020;2023-04-25T01:51:07;217.00;;;59.20;;
10305;SDS011;5198;52.382;9.020;2023-04-25T01:55:14;214.45;;;58.35;;
10305;SDS011;5198;52.382;9.020;2023-04-25T01:59:17;220.80;;;60.60;;
10305;SDS011;5198;52.382;9.020;2023-04-25T02:03:23;219.85;;;60.55;;
10305;SDS011;5198;52.382;9.020;2023-04-25T02:07:26;215.40;;;58.70;;
10305;SDS011;5198;52.382;9.020;2023-04-25T02:11:30;219.90;;;60.10;;
10305;SDS011;5198;52.382;9.020;2023-04-25T02:15:33;219.40;;;60.20;;
10305;SDS011;5198;52.382;9.020;2023-04-25T02:19:37;216.63;;;58.90;;
10305;SDS011;5198;52.382;9.020;2023-04-25T02:23:40;220.70;;;60.60;;
10305;SDS011;5198;52.382;9.020;2023-04-25T02:27:44;218.90;;;59.40;;
10305;SDS011;5198;52.382;9.020;2023-04-25T02:31:48;218.40;;;59.25;;
10305;SDS011;5198;52.382;9.020;2023-04-25T02:35:51;220.10;;;60.20;;
10305;SDS011;5198;52.382;9.020;2023-04-25T02:39:54;218.50;;;59.20;;
10305;SDS011;5198;52.382;9.020;2023-04-25T02:43:58;218.10;;;59.90;;
10305;SDS011;5198;52.382;9.020;2023-04-25T02:48:02;215.40;;;58.10;;
10305;SDS011;5198;52.382;9.020;2023-04-25T02:52:05;216.00;;;58.30;;
10305;SDS011;5198;52.382;9.020;2023-04-25T02:56:08;217.95;;;59.50;;
10305;SDS011;5198;52.382;9.020;2023-04-25T03:00:13;214.65;;;58.10;;
10305;SDS011;5198;52.382;9.020;2023-04-25T03:04:16;217.55;;;59.05;;
10305;SDS011;5198;52.382;9.020;2023-04-25T03:08:20;223.20;;;60.00;;
10305;SDS011;5198;52.382;9.020;2023-04-25T03:12:24;217.15;;;59.00;;
10305;SDS011;5198;52.382;9.020;2023-04-25T03:16:28;216.55;;;58.75;;
10305;SDS011;5198;52.382;9.020;2023-04-25T03:20:32;215.15;;;57.65;;
10305;SDS011;5198;52.382;9.020;2023-04-25T03:24:35;215.83;;;58.33;;
10305;SDS011;5198;52.382;9.020;2023-04-25T03:28:38;227.95;;;59.10;;
10305;SDS011;5198;52.382;9.020;2023-04-25T03:32:43;227.67;;;60.30;;
10305;SDS011;5198;52.382;9.020;2023-04-25T03:36:46;218.55;;;59.10;;
10305;SDS011;5198;52.382;9.020;2023-04-25T03:40:49;217.00;;;58.90;;
10305;SDS011;5198;52.382;9.020;2023-04-25T03:44:53;218.45;;;59.60;;
10305;SDS011;5198;52.382;9.020;2023-04-25T03:48:57;217.50;;;59.10;;
10305;SDS011;5198;52.382;9.020;2023-04-25T03:53:00;215.15;;;58.05;;
10305;SDS011;5198;52.382;9.020;2023-04-25T03:57:03;216.70;;;58.50;;
10305;SDS011;5198;52.382;9.020;2023-04-25T04:01:06;213.90;;;57.40;;
10305;SDS011;5198;52.382;9.020;2023-04-25T04:05:10;214.75;;;57.45;;
10305;SDS011;5198;52.382;9.020;2023-04-25T04:09:14;215.33;;;57.40;;
10305;SDS011;5198;52.382;9.020;2023-04-25T04:13:17;216.07;;;58.13;;
10305;SDS011;5198;52.382;9.020;2023-04-25T04:17:20;215.80;;;57.80;;
10305;SDS011;5198;52.382;9.020;2023-04-25T04:21:24;215.60;;;57.40;;
10305;SDS011;5198;52.382;9.020;2023-04-25T04:25:28;213.40;;;56.70;;
10305;SDS011;5198;52.382;9.020;2023-04-25T04:29:31;215.40;;;57.10;;
10305;SDS011;5198;52.382;9.020;2023-04-25T04:33:34;214.20;;;56.70;;
10305;SDS011;5198;52.382;9.020;2023-04-25T04:37:39;216.10;;;57.65;;
10305;SDS011;5198;52.382;9.020;2023-04-25T04:41:42;216.23;;;57.17;;
10305;SDS011;5198;52.382;9.020;2023-04-25T04:45:45;212.50;;;55.80;;
10305;SDS011;5198;52.382;9.020;2023-04-25T04:49:48;215.95;;;57.05;;
10305;SDS011;5198;52.382;9.020;2023-04-25T04:53:53;216.68;;;57.78;;
10305;SDS011;5198;52.382;9.020;2023-04-25T04:57:59;216.20;;;57.30;;
10305;SDS011;5198;52.382;9.020;2023-04-25T05:02:02;221.53;;;59.43;;
10305;SDS011;5198;52.382;9.020;2023-04-25T05:06:05;215.13;;;56.57;;
10305;SDS011;5198;52.382;9.020;2023-04-25T05:10:11;214.20;;;56.20;;
10305;SDS011;5198;52.382;9.020;2023-04-25T05:14:14;215.63;;;56.92;;
10305;SDS011;5198;52.382;9.020;2023-04-25T05:18:18;213.93;;;55.92;;
10305;SDS011;5198;52.382;9.020;2023-04-25T05:22:23;211.23;;;54.72;;
10305;SDS011;5198;52.382;9.020;2023-04-25T05:26:28;214.90;;;56.10;;
10305;SDS011;5198;52.382;9.020;2023-04-25T05:30:33;214.43;;;56.40;;
10305;SDS011;5198;52.382;9.020;2023-04-25T05:34:36;213.90;;;56.00;;
10305;SDS011;5198;52.382;9.020;2023-04-25T05:38:39;214.50;;;56.13;;
10305;SDS011;5198;52.382;9.020;2023-04-25T05:42:44;213.45;;;55.65;;
10305;SDS011;5198;52.382;9.020;2023-04-25T05:46:47;213.15;;;55.75;;
10305;SDS011;5198;52.382;9.020;2023-04-25T05:50:50;212.20;;;55.30;;
10305;SDS011;5198;52.382;9.020;2023-04-25T05:54:53;211.30;;;55.30;;
10305;SDS011;5198;52.382;9.020;2023-04-25T05:58:58;212.20;;;56.00;;
10305;SDS011;5198;52.382;9.020;2023-04-25T06:03:01;210.45;;;55.15;;
10305;SDS011;5198;52.382;9.020;2023-04-25T06:07:04;210.30;;;55.20;;
10305;SDS011;5198;52.382;9.020;2023-04-25T06:11:07;211.20;;;55.70;;
10305;SDS011;5198;52.382;9.020;2023-04-25T06:15:11;212.20;;;56.40;;
10305;SDS011;5198;52.382;9.020;2023-04-25T06:19:28;211.45;;;56.05;;
10305;SDS011;5198;52.382;9.020;2023-04-25T06:23:31;209.27;;;55.70;;
10305;SDS011;5198;52.382;9.020;2023-04-25T06:27:34;211.60;;;56.45;;
10305;SDS011;5198;52.382;9.020;2023-04-25T06:31:38;210.50;;;55.95;;
10305;SDS011;5198;52.382;9.020;2023-04-25T06:35:42;208.45;;;54.70;;
10305;SDS011;5198;52.382;9.020;2023-04-25T06:39:45;208.75;;;54.80;;
10305;SDS011;5198;52.382;9.020;2023-04-25T06:43:48;208.80;;;55.80;;
10305;SDS011;5198;52.382;9.020;2023-04-25T06:47:52;208.70;;;55.65;;
10305;SDS011;5198;52.382;9.020;2023-04-25T06:51:55;207.25;;;55.15;;
10305;SDS011;5198;52.382;9.020;2023-04-25T06:55:58;207.90;;;55.13;;
10305;SDS011;5198;52.382;9.020;2023-04-25T07:00:01;208.17;;;55.57;;
10305;SDS011;5198;52.382;9.020;2023-04-25T07:04:08;205.37;;;54.50;;
10305;SDS011;5198;52.382;9.020;2023-04-25T07:08:11;206.20;;;54.70;;
10305;SDS011;5198;52.382;9.020;2023-04-25T07:12:14;207.70;;;55.50;;
10305;SDS011;5198;52.382;9.020;2023-04-25T07:16:17;206.73;;;55.10;;
10305;SDS011;5198;52.382;9.020;2023-04-25T07:20:22;205.87;;;54.43;;
10305;SDS011;5198;52.382;9.020;2023-04-25T07:24:25;203.40;;;54.20;;
10305;SDS011;5198;52.382;9.020;2023-04-25T07:28:28;205.15;;;54.95;;
10305;SDS011;5198;52.382;9.020;2023-04-25T07:32:31;204.35;;;54.75;;
10305;SDS011;5198;52.382;9.020;2023-04-25T07:36:35;203.67;;;54.70;;
10305;SDS011;5198;52.382;9.020;2023-04-25T07:40:38;204.60;;;54.70;;
10305;SDS011;5198;52.382;9.020;2023-04-25T07:44:41;205.75;;;55.90;;
10305;SDS011;5198;52.382;9.020;2023-04-25T07:48:44;205.30;;;55.30;;
10305;SDS011;5198;52.382;9.020;2023-04-25T07:52:49;202.20;;;54.40;;
10305;SDS011;5198;52.382;9.020;2023-04-25T07:56:52;203.85;;;55.10;;
10305;SDS011;5198;52.382;9.020;2023-04-25T08:04:58;201.83;;;54.90;;
10305;SDS011;5198;52.382;9.020;2023-04-25T08:09:02;201.55;;;55.00;;
10305;SDS011;5198;52.382;9.020;2023-04-25T08:13:06;201.75;;;55.25;;
10305;SDS011;5198;52.382;9.020;2023-04-25T08:17:09;201.17;;;54.97;;
10305;SDS011;5198;52.382;9.020;2023-04-25T08:21:12;201.05;;;55.15;;
10305;SDS011;5198;52.382;9.020;2023-04-25T08:25:16;199.50;;;54.40;;
10305;SDS011;5198;52.382;9.020;2023-04-25T08:29:19;200.30;;;55.15;;
10305;SDS011;5198;52.382;9.020;2023-04-25T08:33:24;198.00;;;54.50;;
10305;SDS011;5198;52.382;9.020;2023-04-25T08:37:27;198.60;;;55.10;;
10305;SDS011;5198;52.382;9.020;2023-04-25T08:41:32;198.48;;;54.78;;
10305;SDS011;5198;52.382;9.020;2023-04-25T08:45:35;197.55;;;53.97;;
10305;SDS011;5198;52.382;9.020;2023-04-25T08:49:42;196.20;;;54.20;;
10305;SDS011;5198;52.382;9.020;2023-04-25T08:53:48;197.30;;;54.40;;
10305;SDS011;5198;52.382;9.020;2023-04-25T08:58:14;193.05;;;53.45;;
10305;SDS011;5198;52.382;9.020;2023-04-25T09:02:18;191.83;;;54.00;;
10305;SDS011;5198;52.382;9.020;2023-04-25T09:06:22;187.50;;;53.20;;
10305;SDS011;5198;52.382;9.020;2023-04-25T09:10:27;183.40;;;53.13;;
10305;SDS011;5198;52.382;9.020;2023-04-25T09:14:33;183.67;;;53.00;;
10305;SDS011;5198;52.382;9.020;2023-04-25T09:18:36;192.43;;;54.50;;
10305;SDS011;5198;52.382;9.020;2023-04-25T09:22:39;196.00;;;54.60;;
10305;SDS011;5198;52.382;9.020;2023-04-25T09:26:44;194.35;;;54.50;;
10305;SDS011;5198;52.382;9.020;2023-04-25T09:30:48;191.95;;;54.60;;
10305;SDS011;5198;52.382;9.020;2023-04-25T09:34:52;188.15;;;54.00;;
10305;SDS011;5198;52.382;9.020;2023-04-25T09:38:55;191.20;;;54.85;;
10305;SDS011;5198;52.382;9.020;2023-04-25T09:43:01;186.00;;;53.70;;
10305;SDS011;5198;52.382;9.020;2023-04-25T09:47:06;193.10;;;55.38;;
10305;SDS011;5198;52.382;9.020;2023-04-25T09:51:13;191.40;;;54.00;;
10305;SDS011;5198;52.382;9.020;2023-04-25T09:55:16;188.15;;;53.40;;
10305;SDS011;5198;52.382;9.020;2023-04-25T09:59:20;191.15;;;54.45;;
10305;SDS011;5198;52.382;9.020;2023-04-25T10:03:26;192.30;;;54.92;;
10305;SDS011;5198;52.382;9.020;2023-04-25T10:07:30;196.40;;;55.00;;
10305;SDS011;5198;52.382;9.020;2023-04-25T10:11:34;194.85;;;54.75;;
10305;SDS011;5198;52.382;9.020;2023-04-25T10:15:37;199.40;;;55.80;;
10305;SDS011;5198;52.382;9.020;2023-04-25T10:19:42;195.20;;;54.70;;
10305;SDS011;5198;52.382;9.020;2023-04-25T10:23:45;192.07;;;54.40;;
10305;SDS011;5198;52.382;9.020;2023-04-25T10:27:49;192.05;;;54.20;;
10305;SDS011;5198;52.382;9.020;2023-04-25T10:31:53;196.10;;;54.70;;
10305;SDS011;5198;52.382;9.020;2023-04-25T10:35:58;196.70;;;54.65;;
10305;SDS011;5198;52.382;9.020;2023-04-25T10:40:11;196.15;;;54.65;;
10305;SDS011;5198;52.382;9.020;2023-04-25T10:44:15;195.90;;;55.20;;
10305;SDS011;5198;52.382;9.020;2023-04-25T10:48:24;196.23;;;55.00;;
10305;SDS011;5198;52.382;9.020;2023-04-25T10:52:29;194.75;;;54.30;;
10305;SDS011;5198;52.382;9.020;2023-04-25T10:56:36;195.90;;;54.80;;
10305;SDS011;5198;52.382;9.020;2023-04-25T11:00:41;198.97;;;55.23;;
10305;SDS011;5198;52.382;9.020;2023-04-25T11:04:57;200.53;;;55.80;;
10305;SDS011;5198;52.382;9.020;2023-04-25T11:09:03;199.60;;;55.60;;
10305;SDS011;5198;52.382;9.020;2023-04-25T11:13:14;198.60;;;56.10;;
10305;SDS011;5198;52.382;9.020;2023-04-25T11:17:18;197.43;;;56.23;;
10305;SDS011;5198;52.382;9.020;2023-04-25T11:21:21;198.43;;;55.50;;
10305;SDS011;5198;52.382;9.020;2023-04-25T11:25:25;196.00;;;54.57;;
10305;SDS011;5198;52.382;9.020;2023-04-25T11:29:29;198.65;;;55.05;;
10305;SDS011;5198;52.382;9.020;2023-04-25T11:33:32;198.70;;;55.83;;
10305;SDS011;5198;52.382;9.020;2023-04-25T11:37:35;197.13;;;55.20;;
10305;SDS011;5198;52.382;9.020;2023-04-25T11:41:40;197.20;;;55.50;;
10305;SDS011;5198;52.382;9.020;2023-04-25T11:45:46;197.90;;;55.20;;
10305;SDS011;5198;52.382;9.020;2023-04-25T11:49:52;197.90;;;55.88;;
10305;SDS011;5198;52.382;9.020;2023-04-25T11:53:55;196.73;;;55.20;;
10305;SDS011;5198;52.382;9.020;2023-04-25T11:58:00;196.80;;;56.00;;
10305;SDS011;5198;52.382;9.020;2023-04-25T12:02:03;193.17;;;54.90;;
10305;SDS011;5198;52.382;9.020;2023-04-25T12:06:08;191.30;;;53.40;;
10305;SDS011;5198;52.382;9.020;2023-04-25T12:10:12;194.50;;;54.80;;
10305;SDS011;5198;52.382;9.020;2023-04-25T12:14:22;188.00;;;54.00;;
10305;SDS011;5198;52.382;9.020;2023-04-25T12:18:26;189.20;;;54.30;;
10305;SDS011;5198;52.382;9.020;2023-04-25T12:22:29;189.30;;;54.20;;
10305;SDS011;5198;52.382;9.020;2023-04-25T12:26:45;192.70;;;54.50;;
10305;SDS011;5198;52.382;9.020;2023-04-25T12:30:53;194.20;;;54.00;;
10305;SDS011;5198;52.382;9.020;2023-04-25T12:34:58;187.93;;;53.63;;
10305;SDS011;5198;52.382;9.020;2023-04-25T12:39:01;192.55;;;54.78;;
10305;SDS011;5198;52.382;9.020;2023-04-25T12:43:05;192.15;;;54.55;;
10305;SDS011;5198;52.382;9.020;2023-04-25T12:47:09;190.93;;;54.40;;
10305;SDS011;5198;52.382;9.020;2023-04-25T12:51:13;191.20;;;54.40;;
10305;SDS011;5198;52.382;9.020;2023-04-25T12:55:16;191.10;;;55.10;;
10305;SDS011;5198;52.382;9.020;2023-04-25T12:59:19;190.40;;;54.60;;
10305;SDS011;5198;52.382;9.020;2023-04-25T13:03:23;190.90;;;54.50;;
10305;SDS011;5198;52.382;9.020;2023-04-25T13:07:27;191.00;;;54.40;;
10305;SDS011;5198;52.382;9.020;2023-04-25T13:11:30;193.35;;;54.10;;
10305;SDS011;5198;52.382;9.020;2023-04-25T13:15:33;190.05;;;54.00;;
10305;SDS011;5198;52.382;9.020;2023-04-25T13:19:38;187.90;;;53.90;;
10305;SDS011;5198;52.382;9.020;2023-04-25T13:23:41;189.30;;;54.40;;
10305;SDS011;5198;52.382;9.020;2023-04-25T13:27:44;188.13;;;53.60;;
10305;SDS011;5198;52.382;9.020;2023-04-25T13:31:47;191.90;;;54.20;;
10305;SDS011;5198;52.382;9.020;2023-04-25T13:35:52;193.35;;;54.10;;
10305;SDS011;5198;52.382;9.020;2023-04-25T13:39:58;195.07;;;54.57;;
10305;SDS011;5198;52.382;9.020;2023-04-25T13:44:02;196.30;;;55.50;;
10305;SDS011;5198;52.382;9.020;2023-04-25T13:48:05;196.80;;;55.40;;
10305;SDS011;5198;52.382;9.020;2023-04-25T13:52:09;196.80;;;55.40;;
10305;SDS011;5198;52.382;9.020;2023-04-25T13:56:12;194.05;;;54.65;;
10305;SDS011;5198;52.382;9.020;2023-04-25T14:00:16;191.48;;;53.90;;
10305;SDS011;5198;52.382;9.020;2023-04-25T14:04:19;192.30;;;54.60;;
10305;SDS011;5198;52.382;9.020;2023-04-25T14:08:24;188.90;;;53.30;;
10305;SDS011;5198;52.382;9.020;2023-04-25T14:12:27;191.40;;;54.40;;
10305;SDS011;5198;52.382;9.020;2023-04-25T14:16:31;189.77;;;53.57;;
10305;SDS011;5198;52.382;9.020;2023-04-25T14:20:34;190.70;;;54.23;;
10305;SDS011;5198;52.382;9.020;2023-04-25T14:24:38;187.32;;;54.70;;
10305;SDS011;5198;52.382;9.020;2023-04-25T14:28:41;181.00;;;52.93;;
10305;SDS011;5198;52.382;9.020;2023-04-25T14:32:44;186.90;;;53.70;;
10305;SDS011;5198;52.382;9.020;2023-04-25T14:36:47;187.43;;;53.78;;
10305;SDS011;5198;52.382;9.020;2023-04-25T14:40:52;187.50;;;54.20;;
10305;SDS011;5198;52.382;9.020;2023-04-25T14:44:56;185.15;;;53.10;;
10305;SDS011;5198;52.382;9.020;2023-04-25T14:48:59;190.70;;;54.20;;
10305;SDS011;5198;52.382;9.020;2023-04-25T14:53:02;189.40;;;54.10;;
10305;SDS011;5198;52.382;9.020;2023-04-25T14:57:06;188.50;;;54.60;;
10305;SDS011;5198;52.382;9.020;2023-04-25T15:01:09;187.17;;;54.50;;
10305;SDS011;5198;52.382;9.020;2023-04-25T15:05:14;185.65;;;54.10;;
10305;SDS011;5198;52.382;9.020;2023-04-25T15:09:17;184.20;;;53.95;;
10305;SDS011;5198;52.382;9.020;2023-04-25T15:13:22;186.20;;;53.95;;
10305;SDS011;5198;52.382;9.020;2023-04-25T15:17:25;188.55;;;54.70;;
10305;SDS011;5198;52.382;9.020;2023-04-25T15:21:32;189.80;;;54.83;;
10305;SDS011;5198;52.382;9.020;2023-04-25T15:25:35;191.00;;;55.10;;
10305;SDS011;5198;52.382;9.020;2023-04-25T15:29:39;189.60;;;54.75;;
10305;SDS011;5198;52.382;9.020;2023-04-25T15:33:42;191.83;;;55.00;;
10305;SDS011;5198;52.382;9.020;2023-04-25T15:37:45;192.53;;;55.47;;
10305;SDS011;5198;52.382;9.020;2023-04-25T15:41:48;192.50;;;54.95;;
10305;SDS011;5198;52.382;9.020;2023-04-25T15:45:53;193.00;;;55.20;;
10305;SDS011;5198;52.382;9.020;2023-04-25T15:49:56;193.30;;;55.30;;
10305;SDS011;5198;52.382;9.020;2023-04-25T15:53:59;192.65;;;55.60;;
10305;SDS011;5198;52.382;9.020;2023-04-25T15:58:04;189.90;;;53.80;;
10305;SDS011;5198;52.382;9.020;2023-04-25T16:02:08;187.85;;;53.80;;
10305;SDS011;5198;52.382;9.020;2023-04-25T16:06:11;188.60;;;54.60;;
10305;SDS011;5198;52.382;9.020;2023-04-25T16:10:17;190.70;;;54.67;;
10305;SDS011;5198;52.382;9.020;2023-04-25T16:14:21;191.20;;;54.50;;
10305;SDS011;5198;52.382;9.020;2023-04-25T16:18:26;191.65;;;54.80;;
10305;SDS011;5198;52.382;9.020;2023-04-25T16:22:29;192.80;;;55.00;;
10305;SDS011;5198;52.382;9.020;2023-04-25T16:26:32;192.70;;;54.60;;
10305;SDS011;5198;52.382;9.020;2023-04-25T16:30:35;192.13;;;54.17;;
10305;SDS011;5198;52.382;9.020;2023-04-25T16:34:39;194.00;;;54.55;;
10305;SDS011;5198;52.382;9.020;2023-04-25T16:38:42;196.25;;;55.20;;
10305;SDS011;5198;52.382;9.020;2023-04-25T16:42:45;198.17;;;55.50;;
10305;SDS011;5198;52.382;9.020;2023-04-25T16:46:49;197.70;;;55.75;;
10305;SDS011;5198;52.382;9.020;2023-04-25T16:50:53;200.10;;;56.40;;
10305;SDS011;5198;52.382;9.020;2023-04-25T16:54:56;203.20;;;56.83;;
10305;SDS011;5198;52.382;9.020;2023-04-25T16:58:59;199.90;;;55.27;;
10305;SDS011;5198;52.382;9.020;2023-04-25T17:03:02;200.60;;;55.70;;
10305;SDS011;5198;52.382;9.020;2023-04-25T17:07:07;201.70;;;56.20;;
10305;SDS011;5198;52.382;9.020;2023-04-25T17:11:11;198.80;;;54.95;;
10305;SDS011;5198;52.382;9.020;2023-04-25T17:15:14;200.87;;;55.97;;
10305;SDS011;5198;52.382;9.020;2023-04-25T17:19:17;202.03;;;56.33;;
10305;SDS011;5198;52.382;9.020;2023-04-25T17:23:21;202.00;;;56.25;;
10305;SDS011;5198;52.382;9.020;2023-04-25T17:27:24;200.48;;;56.00;;
10305;SDS011;5198;52.382;9.020;2023-04-25T17:31:27;201.80;;;56.40;;
10305;SDS011;5198;52.382;9.020;2023-04-25T17:35:31;201.50;;;56.00;;
10305;SDS011;5198;52.382;9.020;2023-04-25T17:39:37;201.17;;;55.90;;
10305;SDS011;5198;52.382;9.020;2023-04-25T17:43:40;200.80;;;55.80;;
10305;SDS011;5198;52.382;9.020;2023-04-25T17:47:43;202.13;;;56.23;;
10305;SDS011;5198;52.382;9.020;2023-04-25T17:51:46;202.03;;;56.13;;
10305;SDS011;5198;52.382;9.020;2023-04-25T17:55:50;202.30;;;56.60;;
10305;SDS011;5198;52.382;9.020;2023-04-25T18:00:00;202.50;;;55.85;;
10305;SDS011;5198;52.382;9.020;2023-04-25T18:04:06;203.20;;;57.00;;
10305;SDS011;5198;52.382;9.020;2023-04-25T18:08:09;204.50;;;56.80;;
10305;SDS011;5198;52.382;9.020;2023-04-25T18:12:14;201.70;;;55.95;;
10305;SDS011;5198;52.382;9.020;2023-04-25T18:16:18;202.05;;;55.60;;
10305;SDS011;5198;52.382;9.020;2023-04-25T18:20:21;202.90;;;55.90;;
10305;SDS011;5198;52.382;9.020;2023-04-25T18:24:24;203.40;;;56.40;;
10305;SDS011;5198;52.382;9.020;2023-04-25T18:28:30;203.75;;;56.35;;
10305;SDS011;5198;52.382;9.020;2023-04-25T18:32:34;201.90;;;55.60;;
10305;SDS011;5198;52.382;9.020;2023-04-25T18:57:11;204.60;;;56.00;;
10305;SDS011;5198;52.382;9.020;2023-04-25T19:54:08;211.97;;;57.20;;
10305;SDS011;5198;52.382;9.020;2023-04-25T19:58:11;211.63;;;56.30;;
10305;SDS011;5198;52.382;9.020;2023-04-25T20:02:15;212.73;;;56.67;;
10305;SDS011;5198;52.382;9.020;2023-04-25T20:06:20;213.90;;;57.10;;
10305;SDS011;5198;52.382;9.020;2023-04-25T20:10:23;215.05;;;57.40;;
10305;SDS011;5198;52.382;9.020;2023-04-25T20:14:26;216.60;;;57.70;;
10305;SDS011;5198;52.382;9.020;2023-04-25T20:18:33;215.80;;;56.90;;
10305;SDS011;5198;52.382;9.020;2023-04-25T20:26:41;217.23;;;57.20;;
10305;SDS011;5198;52.382;9.020;2023-04-25T20:30:45;219.97;;;58.47;;
10305;SDS011;5198;52.382;9.020;2023-04-25T20:34:48;220.87;;;58.03;;
10305;SDS011;5198;52.382;9.020;2023-04-25T20:38:53;218.20;;;57.20;;
10305;SDS011;5198;52.382;9.020;2023-04-25T20:47:03;219.10;;;56.90;;
10305;SDS011;5198;52.382;9.020;2023-04-25T20:51:09;220.35;;;57.05;;
10305;SDS011;5198;52.382;9.020;2023-04-25T20:55:14;219.55;;;56.70;;
10305;SDS011;5198;52.382;9.020;2023-04-25T20:59:18;218.30;;;56.10;;
10305;SDS011;5198;52.382;9.020;2023-04-25T21:03:21;220.80;;;56.90;;
10305;SDS011;5198;52.382;9.020;2023-04-25T21:07:26;221.10;;;56.60;;
10305;SDS011;5198;52.382;9.020;2023-04-25T21:11:32;221.83;;;57.23;;
10305;SDS011;5198;52.382;9.020;2023-04-25T21:15:35;220.55;;;56.35;;
10305;SDS011;5198;52.382;9.020;2023-04-25T21:19:38;220.50;;;56.00;;
10305;SDS011;5198;52.382;9.020;2023-04-25T21:31:52;226.60;;;58.50;;
10305;SDS011;5198;52.382;9.020;2023-04-25T21:35:56;223.23;;;56.67;;
10305;SDS011;5198;52.382;9.020;2023-04-25T21:39:59;220.60;;;55.67;;
10305;SDS011;5198;52.382;9.020;2023-04-25T21:44:04;222.80;;;56.40;;
10305;SDS011;5198;52.382;9.020;2023-04-25T21:48:09;223.75;;;56.75;;
10305;SDS011;5198;52.382;9.020;2023-04-25T21:52:12;224.70;;;56.85;;
10305;SDS011;5198;52.382;9.020;2023-04-25T21:56:16;224.63;;;56.60;;
10305;SDS011;5198;52.382;9.020;2023-04-25T22:00:21;224.15;;;56.15;;
10305;SDS011;5198;52.382;9.020;2023-04-25T22:04:27;225.50;;;56.40;;
10305;SDS011;5198;52.382;9.020;2023-04-25T22:08:31;226.40;;;56.70;;
10305;SDS011;5198;52.382;9.020;2023-04-25T22:12:34;226.60;;;56.83;;
10305;SDS011;5198;52.382;9.020;2023-04-25T22:16:39;224.40;;;55.80;;
10305;SDS011;5198;52.382;9.020;2023-04-25T22:20:44;226.97;;;56.57;;
10305;SDS011;5198;52.382;9.020;2023-04-25T22:24:47;226.60;;;56.40;;
10305;SDS011;5198;52.382;9.020;2023-04-25T22:28:50;228.18;;;56.65;;
10305;SDS011;5198;52.382;9.020;2023-04-25T22:32:55;226.70;;;56.20;;
10305;SDS011;5198;52.382;9.020;2023-04-25T22:36:58;226.20;;;55.90;;
10305;SDS011;5198;52.382;9.020;2023-04-25T22:41:02;227.40;;;56.00;;
10305;SDS011;5198;52.382;9.020;2023-04-25T22:45:05;229.03;;;56.60;;
10305;SDS011;5198;52.382;9.020;2023-04-25T22:49:11;230.30;;;56.80;;
10305;SDS011;5198;52.382;9.020;2023-04-25T22:53:14;229.98;;;56.70;;
10305;SDS011;5198;52.382;9.020;2023-04-25T22:57:17;229.95;;;56.58;;
10305;SDS011;5198;52.382;9.020;2023-04-25T23:01:21;228.90;;;56.20;;
10305;SDS011;5198;52.382;9.020;2023-04-25T23:05:26;230.10;;;56.55;;
10305;SDS011;5198;52.382;9.020;2023-04-25T23:09:30;230.70;;;57.20;;
10305;SDS011;5198;52.382;9.020;2023-04-25T23:13:34;228.60;;;56.00;;
10305;SDS011;5198;52.382;9.020;2023-04-25T23:17:38;226.80;;;55.15;;
10305;SDS011;5198;52.382;9.020;2023-04-25T23:21:42;230.60;;;56.00;;
10305;SDS011;5198;52.382;9.020;2023-04-25T23:25:46;231.05;;;56.20;;
10305;SDS011;5198;52.382;9.020;2023-04-25T23:29:49;231.50;;;56.10;;
10305;SDS011;5198;52.382;9.020;2023-04-25T23:33:55;231.10;;;56.30;;
10305;SDS011;5198;52.382;9.020;2023-04-25T23:37:59;230.82;;;55.95;;
10305;SDS011;5198;52.382;9.020;2023-04-25T23:42:03;231.60;;;56.10;;
10305;SDS011;5198;52.382;9.020;2023-04-25T23:46:06;232.98;;;56.58;;
10305;SDS011;5198;52.382;9.020;2023-04-25T23:50:10;231.10;;;55.67;;
10305;SDS011;5198;52.382;9.020;2023-04-25T23:54:14;232.32;;;56.55;;
10305;SDS011;5198;52.382;9.020;2023-04-25T23:58:17;233.30;;;56.60;;
